Weather at Igor I Sikorsky Memorial Airport

Public forecast

Using degrees Fahrenheit for public forecast. Weather courtesy of forecast.io.

Current aviation weather report (METAR) for Igor I Sikorsky Memorial Airport

Retrieved 2020/09/29 23:52 UTC (31 minutes ago):

KBDR 292352Z 10003KT 10SM -RA BKN010 OVC075 22/21 A2980 RMK AO2 RAB08 SLP092 P0002 60002 T02220211 10239 20222 57005

Aviation forecast (TAF) for Igor I Sikorsky Memorial Airport

Retrieved 2020-09-30 00:30 UTC (0 seconds ago):

TAF KBDR 292327Z 3000/3024 16008KT 6SM SHRA BR BKN008 OVC015 FM300300 16014G20KT 3SM SHRA BR BKN008 OVC010 FM300700 16018G28KT 3SM +SHRA BR OVC005 WS020/19050KT FM301100 25014G24KT 5SM SHRA BR SCT005 OVC010 FM301200 23012G20KT 6SM BR SCT007 BKN012 FM301600 26016G26KT P6SM SCT040 BKN250 FM302300 23015G23KT P6SM FEW040